Time;durP1;ratioP1;P1;durP2;ratioP2;P2;SDS_P1;SDS_P2;PMS_P1;PMS_P2;Temp;Humidity;BMP_temperature;BMP_pressure;BME280_temperature;BME280_humidity;BME280_pressure;Samples;Min_cycle;Max_cycle;Signal;HPM_P1;HPM_P2
2021/11/22 00:00:48;;;;;;;5.18;1.40;;;;;;;;;;4984026;28;20129;-67
2021/11/22 00:03:15;;;;;;;4.78;1.35;;;;;;;;;;4981302;28;20564;-67
2021/11/22 00:05:42;;;;;;;2.20;1.00;;;;;;;;;;4991710;28;20077;-67
2021/11/22 00:08:08;;;;;;;2.03;1.30;;;;;;;;;;4992016;28;20476;-66
2021/11/22 00:10:35;;;;;;;1.63;1.45;;;;;;;;;;4986731;28;20081;-66
2021/11/22 00:13:02;;;;;;;4.07;1.35;;;;;;;;;;4982405;28;20069;-66
2021/11/22 00:15:28;;;;;;;2.78;1.35;;;;;;;;;;4984048;28;20578;-67
2021/11/22 00:17:55;;;;;;;1.25;0.90;;;;;;;;;;4967592;28;20081;-66
2021/11/22 00:20:22;;;;;;;2.13;1.10;;;;;;;;;;4987749;28;20498;-66
2021/11/22 00:22:49;;;;;;;5.85;1.63;;;;;;;;;;4984170;28;20138;-66
2021/11/22 00:25:16;;;;;;;3.40;1.40;;;;;;;;;;4983344;28;20146;-67
2021/11/22 00:27:44;;;;;;;3.78;1.20;;;;;;;;;;4989141;28;20132;-67
2021/11/22 00:30:12;;;;;;;6.40;1.80;;;;;;;;;;4985849;28;20054;-66
2021/11/22 00:32:39;;;;;;;1.70;1.20;;;;;;;;;;4984465;28;20524;-66
2021/11/22 00:35:06;;;;;;;2.63;1.83;;;;;;;;;;4982742;28;20050;-66
2021/11/22 00:37:36;;;;;;;4.80;1.48;;;;;;;;;;4984752;28;20046;-66
2021/11/22 00:40:06;;;;;;;4.97;1.58;;;;;;;;;;4981946;28;20074;-66
2021/11/22 00:42:33;;;;;;;5.93;2.35;;;;;;;;;;4981670;28;20124;-66
2021/11/22 00:45:00;;;;;;;4.05;1.90;;;;;;;;;;4984119;28;20085;-66
2021/11/22 00:47:26;;;;;;;7.03;2.20;;;;;;;;;;4982077;28;20138;-67
2021/11/22 00:49:53;;;;;;;4.60;1.83;;;;;;;;;;4979428;28;20522;-66
2021/11/22 00:52:20;;;;;;;3.53;1.60;;;;;;;;;;4986816;28;20530;-66
2021/11/22 00:54:46;;;;;;;2.60;1.23;;;;;;;;;;4987785;28;20066;-66
2021/11/22 00:57:13;;;;;;;4.95;1.67;;;;;;;;;;4983057;28;20605;-66
2021/11/22 00:59:39;;;;;;;6.30;1.58;;;;;;;;;;4983922;28;20417;-66
2021/11/22 01:02:06;;;;;;;1.92;1.50;;;;;;;;;;4981725;28;20142;-66
2021/11/22 01:04:36;;;;;;;7.20;1.58;;;;;;;;;;4988156;28;20085;-67
2021/11/22 01:07:03;;;;;;;3.55;1.85;;;;;;;;;;4986511;28;20129;-67
2021/11/22 01:09:31;;;;;;;2.78;1.80;;;;;;;;;;4981676;28;20038;-67
2021/11/22 01:11:58;;;;;;;3.85;1.45;;;;;;;;;;4983607;28;20141;-67
2021/11/22 01:14:24;;;;;;;5.97;1.73;;;;;;;;;;4983628;28;20173;-67
2021/11/22 01:16:51;;;;;;;4.78;1.88;;;;;;;;;;4984855;28;20145;-67
2021/11/22 01:19:18;;;;;;;5.72;1.48;;;;;;;;;;4982628;28;20138;-67
2021/11/22 01:21:45;;;;;;;5.10;1.93;;;;;;;;;;4985510;28;20046;-67
2021/11/22 01:24:11;;;;;;;7.00;1.67;;;;;;;;;;4984796;28;20133;-67
2021/11/22 01:26:38;;;;;;;2.75;1.70;;;;;;;;;;4981601;28;20142;-67
2021/11/22 01:29:05;;;;;;;6.43;2.47;;;;;;;;;;4990078;28;20078;-67
2021/11/22 01:31:31;;;;;;;7.07;1.98;;;;;;;;;;4979924;28;20116;-67
2021/11/22 01:33:58;;;;;;;6.82;1.85;;;;;;;;;;4987186;28;20113;-67
2021/11/22 01:36:25;;;;;;;3.67;1.80;;;;;;;;;;4979844;28;20081;-67
2021/11/22 01:38:51;;;;;;;9.73;2.10;;;;;;;;;;4980577;28;20329;-67
2021/11/22 01:41:18;;;;;;;4.18;1.48;;;;;;;;;;4979964;28;20491;-67
2021/11/22 01:43:44;;;;;;;2.47;1.40;;;;;;;;;;4982207;28;20138;-67
2021/11/22 01:46:15;;;;;;;4.78;1.70;;;;;;;;;;4986032;28;20078;-67
2021/11/22 01:48:42;;;;;;;3.08;1.52;;;;;;;;;;4979364;28;20077;-67
2021/11/22 01:51:08;;;;;;;2.43;1.57;;;;;;;;;;4978911;28;20141;-67
2021/11/22 01:53:35;;;;;;;6.30;1.90;;;;;;;;;;4980849;28;20146;-66
2021/11/22 01:56:16;;;;;;;4.07;1.70;;;;;;;;;;4977978;28;20050;-67
2021/11/22 01:58:42;;;;;;;4.97;2.05;;;;;;;;;;4979043;28;20085;-67
2021/11/22 02:01:09;;;;;;;3.10;1.60;;;;;;;;;;4985861;28;20150;-67
2021/11/22 02:03:36;;;;;;;4.18;1.40;;;;;;;;;;4988807;28;20498;-66
2021/11/22 02:06:03;;;;;;;6.07;1.73;;;;;;;;;;4971523;28;20126;-66
2021/11/22 02:08:30;;;;;;;4.03;1.85;;;;;;;;;;4985603;28;20078;-66
2021/11/22 02:10:56;;;;;;;2.72;1.55;;;;;;;;;;4987429;28;20046;-67
2021/11/22 02:13:23;;;;;;;2.47;1.80;;;;;;;;;;4988720;28;20088;-67
2021/11/22 02:15:50;;;;;;;3.72;1.70;;;;;;;;;;4988467;28;20101;-66
2021/11/22 02:18:18;;;;;;;8.20;2.03;;;;;;;;;;4985124;28;20107;-67
2021/11/22 02:20:45;;;;;;;3.73;1.70;;;;;;;;;;4979216;28;20078;-67
2021/11/22 02:23:12;;;;;;;4.15;1.58;;;;;;;;;;4989017;28;20137;-67
2021/11/22 02:25:40;;;;;;;5.25;1.77;;;;;;;;;;4980673;28;20594;-67
2021/11/22 02:28:07;;;;;;;2.60;1.53;;;;;;;;;;4985304;28;20092;-66
2021/11/22 02:30:37;;;;;;;3.90;1.70;;;;;;;;;;4987745;28;20682;-67
2021/11/22 02:33:06;;;;;;;4.43;1.70;;;;;;;;;;4983108;28;20049;-66
2021/11/22 02:35:34;;;;;;;6.20;2.00;;;;;;;;;;4989154;28;20114;-67
2021/11/22 02:38:22;;;;;;;2.85;1.95;;;;;;;;;;4982633;28;20053;-67
2021/11/22 02:40:48;;;;;;;3.33;1.80;;;;;;;;;;4981409;28;20144;-66
2021/11/22 02:43:16;;;;;;;5.20;1.80;;;;;;;;;;4991751;28;20077;-66
2021/11/22 02:45:42;;;;;;;6.85;1.80;;;;;;;;;;4982742;28;20047;-67
2021/11/22 02:48:09;;;;;;;2.50;1.50;;;;;;;;;;4988181;28;20096;-66
2021/11/22 02:50:35;;;;;;;2.15;1.10;;;;;;;;;;4984771;28;20142;-67
2021/11/22 02:53:02;;;;;;;4.90;1.93;;;;;;;;;;4984122;28;20048;-67
2021/11/22 02:55:28;;;;;;;4.07;1.52;;;;;;;;;;4985290;28;20145;-67
2021/11/22 02:57:55;;;;;;;5.78;1.50;;;;;;;;;;4984760;28;20130;-66
2021/11/22 03:00:23;;;;;;;5.97;1.70;;;;;;;;;;4985703;28;20082;-67
2021/11/22 03:02:50;;;;;;;3.90;1.57;;;;;;;;;;4985325;28;20325;-67
2021/11/22 03:05:18;;;;;;;4.47;2.10;;;;;;;;;;4988758;28;20485;-67
2021/11/22 03:07:45;;;;;;;5.18;2.05;;;;;;;;;;4985655;28;20536;-67
2021/11/22 03:10:13;;;;;;;4.05;1.83;;;;;;;;;;4977151;28;20089;-67
2021/11/22 03:12:40;;;;;;;3.13;1.70;;;;;;;;;;4986257;28;20121;-67
2021/11/22 03:15:10;;;;;;;5.38;1.90;;;;;;;;;;4984015;28;20082;-67
2021/11/22 03:17:37;;;;;;;7.50;1.77;;;;;;;;;;4989051;28;20138;-67
2021/11/22 03:20:04;;;;;;;5.72;1.80;;;;;;;;;;4990490;28;20046;-67
2021/11/22 03:22:31;;;;;;;;;;;;;;;;;;4991388;28;20614;-67
2021/11/22 03:24:57;;;;;;;7.63;2.30;;;;;;;;;;4982818;28;20004;-66
2021/11/22 03:27:24;;;;;;;4.07;1.48;;;;;;;;;;4990211;28;20055;-67
2021/11/22 03:29:51;;;;;;;3.67;1.42;;;;;;;;;;4988862;28;20574;-67
2021/11/22 03:32:17;;;;;;;4.17;1.27;;;;;;;;;;4985021;28;20137;-66
2021/11/22 03:34:44;;;;;;;3.25;1.40;;;;;;;;;;4987535;28;20062;-67
2021/11/22 03:37:11;;;;;;;2.70;1.52;;;;;;;;;;4986765;28;20629;-67
2021/11/22 03:39:37;;;;;;;1.65;1.05;;;;;;;;;;4982612;28;20097;-66
2021/11/22 03:42:07;;;;;;;3.55;1.58;;;;;;;;;;4983729;28;20062;-66
2021/11/22 03:44:34;;;;;;;3.13;1.80;;;;;;;;;;4984525;28;20088;-67
2021/11/22 03:47:01;;;;;;;5.07;1.98;;;;;;;;;;4979973;28;20170;-66
2021/11/22 03:49:28;;;;;;;4.17;1.57;;;;;;;;;;4987048;28;20068;-67
2021/11/22 03:51:54;;;;;;;4.30;1.37;;;;;;;;;;4988652;28;20089;-67
2021/11/22 03:54:21;;;;;;;4.53;1.37;;;;;;;;;;4986171;28;20520;-67
2021/11/22 03:56:47;;;;;;;3.90;1.55;;;;;;;;;;4984141;28;20384;-66
2021/11/22 03:59:14;;;;;;;2.90;1.17;;;;;;;;;;4986274;28;20145;-66
2021/11/22 04:01:40;;;;;;;2.67;1.60;;;;;;;;;;4985096;28;20073;-66
2021/11/22 04:04:09;;;;;;;4.17;1.70;;;;;;;;;;4980614;28;20050;-67
2021/11/22 04:06:35;;;;;;;6.65;1.95;;;;;;;;;;4983892;28;20546;-67
2021/11/22 04:09:03;;;;;;;6.03;1.50;;;;;;;;;;4981392;28;20521;-66
2021/11/22 04:11:29;;;;;;;3.77;1.60;;;;;;;;;;4986920;28;20141;-66
2021/11/22 04:13:56;;;;;;;7.18;1.83;;;;;;;;;;4989244;28;20078;-66
2021/11/22 04:16:23;;;;;;;2.50;1.60;;;;;;;;;;4982857;28;20577;-67
2021/11/22 04:18:52;;;;;;;3.40;1.52;;;;;;;;;;4983287;28;20042;-67
2021/11/22 04:21:20;;;;;;;2.50;1.40;;;;;;;;;;4986933;28;20085;-67
2021/11/22 04:23:47;;;;;;;2.93;1.53;;;;;;;;;;4986716;28;20050;-67
2021/11/22 04:26:14;;;;;;;2.92;1.75;;;;;;;;;;4984854;28;20133;-67
2021/11/22 04:28:40;;;;;;;3.33;1.42;;;;;;;;;;4983342;28;20096;-66
2021/11/22 04:31:07;;;;;;;4.93;1.60;;;;;;;;;;4990066;28;20050;-67
2021/11/22 04:33:36;;;;;;;4.53;1.60;;;;;;;;;;4992907;28;20544;-66
2021/11/22 04:36:02;;;;;;;;;;;;;;;;;;5008676;28;20144;-67
2021/11/22 04:38:29;;;;;;;4.93;1.63;;;;;;;;;;5004551;28;19975;-66
2021/11/22 04:40:56;;;;;;;4.60;1.40;;;;;;;;;;5006181;28;20142;-67
2021/11/22 04:43:22;;;;;;;2.67;1.70;;;;;;;;;;5010294;28;20482;-67
2021/11/22 04:45:49;;;;;;;2.57;1.63;;;;;;;;;;5006103;28;20121;-67
2021/11/22 04:48:15;;;;;;;2.97;1.63;;;;;;;;;;5006331;28;20073;-66
2021/11/22 04:50:42;;;;;;;1.67;1.23;;;;;;;;;;5002485;28;20155;-67
2021/11/22 04:53:08;;;;;;;2.27;1.23;;;;;;;;;;5002793;28;20149;-66
2021/11/22 04:55:35;;;;;;;5.47;1.02;;;;;;;;;;4997872;28;20133;-67
2021/11/22 04:58:02;;;;;;;6.63;1.65;;;;;;;;;;5006619;28;20510;-66
2021/11/22 05:00:30;;;;;;;4.53;1.42;;;;;;;;;;5006411;28;20049;-67
2021/11/22 05:02:58;;;;;;;2.33;1.37;;;;;;;;;;5006838;28;20498;-67
2021/11/22 05:05:24;;;;;;;2.15;1.38;;;;;;;;;;5007352;28;20053;-67
2021/11/22 05:07:51;;;;;;;3.65;1.42;;;;;;;;;;5002758;28;20052;-66
2021/11/22 05:10:31;;;;;;;6.50;1.70;;;;;;;;;;5004127;28;20065;-66
2021/11/22 05:12:57;;;;;;;5.00;1.60;;;;;;;;;;5007898;28;20462;-67
2021/11/22 05:15:24;;;;;;;3.03;1.60;;;;;;;;;;5001631;28;20080;-66
2021/11/22 05:17:50;;;;;;;2.40;1.37;;;;;;;;;;5012659;28;20414;-66
2021/11/22 05:20:17;;;;;;;1.87;1.23;;;;;;;;;;5006406;28;20333;-66
2021/11/22 05:22:49;;;;;;;3.90;1.20;;;;;;;;;;4999973;28;20081;-66
2021/11/22 05:25:16;;;;;;;2.75;1.58;;;;;;;;;;5002525;28;20169;-66
2021/11/22 05:27:42;;;;;;;2.80;1.40;;;;;;;;;;5002148;28;20133;-66
2021/11/22 05:30:09;;;;;;;6.03;1.65;;;;;;;;;;5001718;28;20056;-66
2021/11/22 05:32:35;;;;;;;4.07;1.60;;;;;;;;;;5005747;28;20085;-66
2021/11/22 05:35:03;;;;;;;8.15;1.70;;;;;;;;;;4989280;28;21008;-66
2021/11/22 05:37:31;;;;;;;3.40;1.80;;;;;;;;;;4988534;28;20141;-67
2021/11/22 05:39:57;;;;;;;3.63;1.57;;;;;;;;;;4985930;28;20133;-67
2021/11/22 05:42:24;;;;;;;8.53;3.40;;;;;;;;;;4991900;28;20092;-66
2021/11/22 05:44:50;;;;;;;2.70;1.77;;;;;;;;;;4986426;28;20133;-66
2021/11/22 05:47:18;;;;;;;7.30;1.63;;;;;;;;;;4988132;28;20078;-67
2021/11/22 05:49:45;;;;;;;3.93;1.97;;;;;;;;;;4989291;28;20050;-66
2021/11/22 05:52:12;;;;;;;5.47;2.05;;;;;;;;;;4982160;28;20570;-66
2021/11/22 05:54:47;;;;;;;5.40;1.80;;;;;;;;;;4988209;28;20078;-66
2021/11/22 05:57:13;;;;;;;5.63;1.70;;;;;;;;;;4984406;28;20090;-67
2021/11/22 05:59:40;;;;;;;5.32;1.73;;;;;;;;;;4987446;28;20053;-66
2021/11/22 06:02:06;;;;;;;4.40;2.08;;;;;;;;;;4985470;28;20502;-66
2021/11/22 06:04:33;;;;;;;4.70;1.77;;;;;;;;;;4987057;28;20046;-66
2021/11/22 06:07:00;;;;;;;4.57;1.83;;;;;;;;;;4985188;28;20422;-66
2021/11/22 06:09:27;;;;;;;3.10;1.85;;;;;;;;;;4978074;28;20474;-66
2021/11/22 06:11:54;;;;;;;2.67;1.30;;;;;;;;;;4982426;28;20139;-66
2021/11/22 06:14:21;;;;;;;5.38;2.00;;;;;;;;;;4984538;28;20089;-66
2021/11/22 06:16:47;;;;;;;6.90;1.97;;;;;;;;;;4987411;28;20159;-66
2021/11/22 06:19:14;;;;;;;7.00;1.55;;;;;;;;;;4983953;28;20320;-66
2021/11/22 06:21:40;;;;;;;4.50;1.77;;;;;;;;;;4981208;28;20122;-66
2021/11/22 06:24:07;;;;;;;3.13;1.70;;;;;;;;;;4988363;28;20046;-66
2021/11/22 06:26:34;;;;;;;4.47;1.50;;;;;;;;;;4984009;28;20570;-66
2021/11/22 06:29:01;;;;;;;4.60;1.67;;;;;;;;;;4986119;28;20508;-66
2021/11/22 06:31:27;;;;;;;3.70;1.90;;;;;;;;;;4980629;28;20093;-66
2021/11/22 06:33:54;;;;;;;2.05;1.40;;;;;;;;;;4983654;28;20050;-66
2021/11/22 06:36:21;;;;;;;2.45;1.17;;;;;;;;;;4979825;28;20134;-66
2021/11/22 06:38:47;;;;;;;6.80;1.80;;;;;;;;;;4983521;28;20082;-66
2021/11/22 06:41:14;;;;;;;3.47;1.65;;;;;;;;;;4978363;28;20085;-66
2021/11/22 06:43:41;;;;;;;4.05;1.60;;;;;;;;;;4983736;28;20348;-66
2021/11/22 06:46:07;;;;;;;4.93;1.80;;;;;;;;;;4973240;28;20518;-66
2021/11/22 06:48:34;;;;;;;7.13;1.65;;;;;;;;;;4985820;28;20643;-66
2021/11/22 06:51:01;;;;;;;5.57;2.13;;;;;;;;;;4983979;28;20139;-66
2021/11/22 06:53:27;;;;;;;3.73;1.43;;;;;;;;;;4982384;28;20082;-66
2021/11/22 06:55:54;;;;;;;2.47;1.33;;;;;;;;;;4979098;28;20138;-67
2021/11/22 06:58:20;;;;;;;1.47;1.37;;;;;;;;;;4986828;28;20089;-66
2021/11/22 07:00:47;;;;;;;1.80;1.38;;;;;;;;;;4981842;28;20042;-66
2021/11/22 07:03:14;;;;;;;3.25;1.95;;;;;;;;;;4983783;28;20065;-66
2021/11/22 07:05:40;;;;;;;2.30;1.60;;;;;;;;;;4982807;28;20546;-66
2021/11/22 07:08:08;;;;;;;5.30;2.13;;;;;;;;;;4981968;28;20125;-66
2021/11/22 07:10:35;;;;;;;6.60;1.93;;;;;;;;;;4978631;28;20078;-66
2021/11/22 07:13:01;;;;;;;3.05;1.83;;;;;;;;;;4984656;28;20517;-66
2021/11/22 07:15:36;;;;;;;2.42;1.65;;;;;;;;;;4980481;28;20101;-66
2021/11/22 07:18:04;;;;;;;7.90;1.90;;;;;;;;;;4987768;28;20104;-66
2021/11/22 07:20:31;;;;;;;2.80;1.80;;;;;;;;;;4981879;28;20097;-66
2021/11/22 07:22:58;;;;;;;6.32;2.00;;;;;;;;;;4983468;28;20085;-68
2021/11/22 07:25:24;;;;;;;;;;;;;;;;;;4978172;28;20137;-66
2021/11/22 07:27:52;;;;;;;2.33;1.77;;;;;;;;;;4986968;28;19968;-66
2021/11/22 07:30:21;;;;;;;;;;;;;;;;;;4987231;28;20136;-66
2021/11/22 07:32:53;;;;;;;6.17;2.07;;;;;;;;;;4927457;28;1629246;-66
2021/11/22 07:35:21;;;;;;;3.53;1.77;;;;;;;;;;4986694;28;20150;-66
2021/11/22 07:37:49;;;;;;;4.83;2.13;;;;;;;;;;4989024;28;20522;-66
2021/11/22 07:40:16;;;;;;;4.93;1.97;;;;;;;;;;4989631;28;20088;-66
2021/11/22 07:42:42;;;;;;;2.88;1.67;;;;;;;;;;4990251;28;20089;-66
2021/11/22 07:45:09;;;;;;;3.07;1.43;;;;;;;;;;4987298;28;20121;-66
2021/11/22 07:47:35;;;;;;;4.45;2.00;;;;;;;;;;4977222;28;20059;-66
2021/11/22 07:50:03;;;;;;;2.97;1.80;;;;;;;;;;4979913;28;20046;-66
2021/11/22 07:52:30;;;;;;;4.50;1.83;;;;;;;;;;4982567;28;20542;-66
2021/11/22 07:54:57;;;;;;;5.50;1.80;;;;;;;;;;4983375;28;20047;-66
2021/11/22 07:57:23;;;;;;;7.47;1.60;;;;;;;;;;4988438;28;20082;-66
2021/11/22 07:59:51;;;;;;;1.83;1.33;;;;;;;;;;4984560;28;20082;-66
2021/11/22 08:02:19;;;;;;;3.40;1.60;;;;;;;;;;4988469;28;20148;-66
2021/11/22 08:04:46;;;;;;;6.22;2.28;;;;;;;;;;4984941;28;20054;-66
2021/11/22 08:07:18;;;;;;;4.28;2.10;;;;;;;;;;4985620;28;20105;-66
2021/11/22 08:09:58;;;;;;;2.27;1.80;;;;;;;;;;4983480;28;20070;-66
2021/11/22 08:12:26;;;;;;;4.32;1.73;;;;;;;;;;4982865;28;20113;-66
2021/11/22 08:14:58;;;;;;;5.35;1.90;;;;;;;;;;4984084;28;20042;-66
2021/11/22 08:17:26;;;;;;;7.33;1.70;;;;;;;;;;4977584;28;20157;-66
2021/11/22 08:19:53;;;;;;;6.88;1.70;;;;;;;;;;4985893;28;20442;-66
2021/11/22 08:22:21;;;;;;;;;;;;;;;;;;4983582;28;20078;-66
2021/11/22 08:24:52;;;;;;;3.25;1.65;;;;;;;;;;4981792;28;19976;-67
2021/11/22 08:27:20;;;;;;;4.55;2.10;;;;;;;;;;4983361;28;20089;-66
2021/11/22 08:29:47;;;;;;;5.53;1.80;;;;;;;;;;4983117;28;20288;-66
2021/11/22 08:32:14;;;;;;;5.18;1.83;;;;;;;;;;4988911;28;20073;-66
2021/11/22 08:34:41;;;;;;;4.68;1.80;;;;;;;;;;4987120;28;20050;-66
2021/11/22 08:37:08;;;;;;;5.25;1.50;;;;;;;;;;4981494;28;20146;-65
2021/11/22 08:39:35;;;;;;;3.35;1.67;;;;;;;;;;4980596;28;20191;-66
2021/11/22 08:42:02;;;;;;;2.65;1.52;;;;;;;;;;4984061;28;20137;-66
2021/11/22 08:44:30;;;;;;;5.80;2.30;;;;;;;;;;4984847;28;20141;-66
2021/11/22 08:46:56;;;;;;;4.20;1.77;;;;;;;;;;4978319;28;20479;-66
2021/11/22 08:49:23;;;;;;;7.10;1.77;;;;;;;;;;4983945;28;20092;-66
2021/11/22 08:51:50;;;;;;;9.20;2.15;;;;;;;;;;4983326;28;20078;-66
2021/11/22 08:54:16;;;;;;;6.70;2.00;;;;;;;;;;4987719;28;20082;-66
2021/11/22 08:56:44;;;;;;;4.80;1.38;;;;;;;;;;4982703;28;20311;-66
2021/11/22 08:59:10;;;;;;;;;;;;;;;;;;4984221;28;20100;-66
2021/11/22 09:01:37;;;;;;;7.97;2.20;;;;;;;;;;4984783;28;20352;-66
2021/11/22 09:04:04;;;;;;;8.10;2.20;;;;;;;;;;4978202;28;20109;-66
2021/11/22 09:06:34;;;;;;;6.22;2.05;;;;;;;;;;4981889;28;20106;-66
2021/11/22 09:09:02;;;;;;;4.15;1.73;;;;;;;;;;4977651;28;20130;-66
2021/11/22 09:11:28;;;;;;;5.70;1.73;;;;;;;;;;4978191;28;20085;-66
2021/11/22 09:13:56;;;;;;;6.72;2.03;;;;;;;;;;4980124;28;20121;-66
2021/11/22 09:16:27;;;;;;;4.95;1.60;;;;;;;;;;4982979;28;20458;-66
2021/11/22 09:18:57;;;;;;;6.60;1.67;;;;;;;;;;4981174;28;20055;-66
2021/11/22 09:21:24;;;;;;;6.95;1.58;;;;;;;;;;4981514;28;20134;-67
2021/11/22 09:23:53;;;;;;;4.07;1.65;;;;;;;;;;4972405;28;20133;-66
2021/11/22 09:26:20;;;;;;;3.08;1.30;;;;;;;;;;4977828;28;20151;-66
2021/11/22 09:28:47;;;;;;;4.78;1.30;;;;;;;;;;4976330;28;20129;-66
2021/11/22 09:31:14;;;;;;;3.35;1.45;;;;;;;;;;4977815;28;20085;-66
2021/11/22 09:33:41;;;;;;;6.97;1.52;;;;;;;;;;4981684;28;20061;-66
2021/11/22 09:36:08;;;;;;;3.40;1.23;;;;;;;;;;4977052;28;20586;-66
2021/11/22 09:38:34;;;;;;;4.50;1.50;;;;;;;;;;4980647;28;20090;-66
2021/11/22 09:41:01;;;;;;;8.90;2.15;;;;;;;;;;4980598;28;20081;-66
2021/11/22 09:43:29;;;;;;;3.17;1.15;;;;;;;;;;4983590;28;20149;-66
2021/11/22 09:45:56;;;;;;;3.20;1.33;;;;;;;;;;4980113;28;20093;-67
2021/11/22 09:48:23;;;;;;;3.63;1.30;;;;;;;;;;4985424;28;20537;-67
2021/11/22 09:50:50;;;;;;;6.50;1.55;;;;;;;;;;4980166;28;20137;-67
2021/11/22 09:53:16;;;;;;;6.35;1.40;;;;;;;;;;4981026;28;20093;-66
2021/11/22 09:55:43;;;;;;;2.92;1.25;;;;;;;;;;4976679;28;20491;-67
2021/11/22 09:58:11;;;;;;;2.13;1.20;;;;;;;;;;4982605;28;20590;-67
2021/11/22 10:00:37;;;;;;;5.88;1.35;;;;;;;;;;4984716;28;20092;-67
2021/11/22 10:03:08;;;;;;;6.43;1.70;;;;;;;;;;4979303;28;20062;-67
2021/11/22 10:05:36;;;;;;;5.32;1.38;;;;;;;;;;4979051;28;20073;-67
2021/11/22 10:08:10;;;;;;;4.22;1.38;;;;;;;;;;4981391;28;21233;-68
2021/11/22 10:10:39;;;;;;;7.05;1.55;;;;;;;;;;4983418;28;20093;-67
2021/11/22 10:13:26;;;;;;;5.90;1.60;;;;;;;;;;4984882;28;20105;-67
2021/11/22 10:15:54;;;;;;;5.82;1.83;;;;;;;;;;4983497;28;20138;-67
2021/11/22 10:18:25;;;;;;;10.85;1.42;;;;;;;;;;4985329;28;20090;-67
2021/11/22 10:20:51;;;;;;;5.82;1.48;;;;;;;;;;4985404;28;20073;-67
2021/11/22 10:23:25;;;;;;;2.97;1.17;;;;;;;;;;4985862;28;20085;-68
2021/11/22 10:25:53;;;;;;;8.02;1.65;;;;;;;;;;4978673;28;20140;-67
2021/11/22 10:28:29;;;;;;;7.07;1.80;;;;;;;;;;4986370;28;20137;-67
2021/11/22 10:30:57;;;;;;;1.83;1.02;;;;;;;;;;4983621;28;20587;-67
2021/11/22 10:33:25;;;;;;;4.53;1.50;;;;;;;;;;4986614;28;20650;-67
2021/11/22 10:35:53;;;;;;;2.80;1.27;;;;;;;;;;4984195;28;20050;-67
2021/11/22 10:38:23;;;;;;;3.67;1.23;;;;;;;;;;4986091;28;20482;-68
2021/11/22 10:40:52;;;;;;;4.15;1.70;;;;;;;;;;4983458;28;20046;-67
2021/11/22 10:43:18;;;;;;;3.35;1.48;;;;;;;;;;4974971;28;20137;-67
2021/11/22 10:45:46;;;;;;;4.82;1.95;;;;;;;;;;4988241;28;20235;-67
2021/11/22 10:48:33;;;;;;;5.55;1.77;;;;;;;;;;4980370;28;20086;-67
2021/11/22 10:51:02;;;;;;;4.60;1.85;;;;;;;;;;4985881;28;20089;-67
2021/11/22 10:53:34;;;;;;;2.85;1.42;;;;;;;;;;4981164;28;20274;-67
2021/11/22 10:56:01;;;;;;;4.03;1.80;;;;;;;;;;4985332;28;20820;-68
2021/11/22 10:58:29;;;;;;;5.65;1.40;;;;;;;;;;4971416;28;20086;-67
2021/11/22 11:01:11;;;;;;;4.50;1.80;;;;;;;;;;4988133;28;20561;-67
2021/11/22 11:03:37;;;;;;;4.18;1.77;;;;;;;;;;4983624;28;20660;-68
2021/11/22 11:06:04;;;;;;;6.40;1.90;;;;;;;;;;4986421;28;20138;-68
2021/11/22 11:08:30;;;;;;;3.25;1.52;;;;;;;;;;4985070;28;20070;-67
2021/11/22 11:11:10;;;;;;;4.40;1.70;;;;;;;;;;4981038;28;20146;-67
2021/11/22 11:13:43;;;;;;;4.32;1.58;;;;;;;;;;4982687;28;20134;-67
2021/11/22 11:16:10;;;;;;;5.70;2.05;;;;;;;;;;4977903;28;20050;-67
2021/11/22 11:18:36;;;;;;;7.57;2.00;;;;;;;;;;4985345;28;20092;-68
2021/11/22 11:21:03;;;;;;;3.95;1.60;;;;;;;;;;4987404;28;20530;-68
2021/11/22 11:23:30;;;;;;;3.35;1.40;;;;;;;;;;4987156;28;20046;-68
2021/11/22 11:25:58;;;;;;;2.38;1.60;;;;;;;;;;4983813;28;20537;-67
2021/11/22 11:28:24;;;;;;;;;;;;;;;;;;4984224;28;20081;-67
2021/11/22 11:30:51;;;;;;;4.57;1.65;;;;;;;;;;4982913;28;20025;-68
2021/11/22 11:33:17;;;;;;;5.80;1.75;;;;;;;;;;4981279;28;20069;-67
2021/11/22 11:35:56;;;;;;;;;;;;;;;;;;4986524;28;20138;-67
2021/11/22 11:38:33;;;;;;;9.05;2.45;;;;;;;;;;4985821;28;19969;-68
2021/11/22 11:41:26;;;;;;;4.95;1.83;;;;;;;;;;4981366;28;20134;-68
2021/11/22 11:44:16;;;;;;;7.78;2.33;;;;;;;;;;4976428;28;20585;-68
2021/11/22 11:47:19;;;;;;;3.60;1.50;;;;;;;;;;4981080;28;20054;-68
2021/11/22 11:49:46;;;;;;;10.40;2.22;;;;;;;;;;4976403;28;20054;-68
2021/11/22 11:52:23;;;;;;;8.30;1.70;;;;;;;;;;4988218;28;20088;-68
2021/11/22 11:54:50;;;;;;;8.23;2.67;;;;;;;;;;4981263;28;20082;-68
2021/11/22 11:57:21;;;;;;;6.13;2.10;;;;;;;;;;4985548;28;20042;-68
2021/11/22 11:59:49;;;;;;;6.53;2.30;;;;;;;;;;4986564;28;20085;-67
2021/11/22 12:02:26;;;;;;;9.00;2.35;;;;;;;;;;4980400;28;20051;-68
2021/11/22 12:04:57;;;;;;;;;;;;;;;;;;4980897;28;20174;-67
2021/11/22 12:07:24;;;;;;;6.63;1.90;;;;;;;;;;4978845;28;19941;-68
2021/11/22 12:10:00;;;;;;;6.67;1.73;;;;;;;;;;4977323;28;20085;-68
2021/11/22 12:12:38;;;;;;;8.48;2.58;;;;;;;;;;4985750;28;20090;-68
2021/11/22 12:15:05;;;;;;;5.70;2.03;;;;;;;;;;4980200;28;20094;-68
2021/11/22 12:17:52;;;;;;;7.03;2.00;;;;;;;;;;4980439;28;20050;-68
2021/11/22 12:20:21;;;;;;;8.90;2.38;;;;;;;;;;4988168;28;20511;-67
2021/11/22 12:22:50;;;;;;;6.97;1.85;;;;;;;;;;4982187;28;20082;-67
2021/11/22 12:25:36;;;;;;;5.95;2.20;;;;;;;;;;4978625;28;20142;-67
2021/11/22 12:28:23;;;;;;;9.35;1.77;;;;;;;;;;4975832;28;20407;-67
2021/11/22 12:30:53;;;;;;;6.93;1.70;;;;;;;;;;4966651;28;20097;-67
2021/11/22 12:33:20;;;;;;;5.07;2.17;;;;;;;;;;4978209;28;20150;-68
2021/11/22 12:35:48;;;;;;;9.45;1.98;;;;;;;;;;4978564;28;20299;-68
2021/11/22 12:38:14;;;;;;;;;;;;;;;;;;4972753;28;20097;-68
2021/11/22 12:40:45;;;;;;;5.70;1.67;;;;;;;;;;4986257;28;20011;-67
2021/11/22 12:43:11;;;;;;;7.55;1.80;;;;;;;;;;4978966;28;20104;-68
2021/11/22 12:45:56;;;;;;;9.27;2.53;;;;;;;;;;4982446;28;20129;-69
2021/11/22 12:48:34;;;;;;;6.63;1.88;;;;;;;;;;4985120;28;20085;-68
2021/11/22 12:51:03;;;;;;;4.25;1.95;;;;;;;;;;4980961;28;20074;-68
2021/11/22 12:53:30;;;;;;;6.18;1.92;;;;;;;;;;4981307;28;20115;-68
2021/11/22 12:55:57;;;;;;;8.45;1.90;;;;;;;;;;4984899;28;20059;-68
2021/11/22 12:58:25;;;;;;;10.32;2.30;;;;;;;;;;4979876;28;20082;-68
2021/11/22 13:00:53;;;;;;;8.55;2.65;;;;;;;;;;4972626;28;20053;-68
2021/11/22 13:03:22;;;;;;;5.10;1.73;;;;;;;;;;4899202;28;20810;-68
2021/11/22 13:06:06;;;;;;;11.18;1.88;;;;;;;;;;4909737;28;20789;-69
2021/11/22 13:08:33;;;;;;;9.63;1.73;;;;;;;;;;4956753;28;20085;-68
2021/11/22 13:11:03;;;;;;;7.72;1.95;;;;;;;;;;4985983;28;20097;-68
2021/11/22 13:13:40;;;;;;;8.88;1.88;;;;;;;;;;4984458;28;20138;-68
2021/11/22 13:16:14;;;;;;;13.30;2.58;;;;;;;;;;4983274;28;20518;-68
2021/11/22 13:18:43;;;;;;;9.85;2.30;;;;;;;;;;4983795;28;20101;-68
2021/11/22 13:21:15;;;;;;;16.85;2.33;;;;;;;;;;4979369;28;20145;-68
2021/11/22 13:23:43;;;;;;;14.93;2.63;;;;;;;;;;4978875;28;20050;-68
2021/11/22 13:26:10;;;;;;;;;;;;;;;;;;4980322;28;20085;-68
2021/11/22 13:28:43;;;;;;;14.05;2.47;;;;;;;;;;4978870;28;20012;-68
2021/11/22 13:31:10;;;;;;;15.57;2.63;;;;;;;;;;4977028;28;20554;-68
2021/11/22 13:33:37;;;;;;;12.75;2.17;;;;;;;;;;4980661;28;20129;-68
2021/11/22 13:36:04;;;;;;;8.70;1.83;;;;;;;;;;4979078;28;20077;-68
2021/11/22 13:38:34;;;;;;;8.65;2.28;;;;;;;;;;4978448;28;20549;-69
2021/11/22 13:41:09;;;;;;;9.40;2.55;;;;;;;;;;4978793;28;20149;-68
2021/11/22 13:43:36;;;;;;;16.33;2.33;;;;;;;;;;4979815;28;20074;-69
2021/11/22 13:46:04;;;;;;;12.00;1.95;;;;;;;;;;4976524;28;20050;-68
2021/11/22 13:48:51;;;;;;;12.43;2.17;;;;;;;;;;4979301;28;20065;-69
2021/11/22 13:51:20;;;;;;;15.13;2.35;;;;;;;;;;4978476;28;20133;-68
2021/11/22 13:53:47;;;;;;;15.30;2.30;;;;;;;;;;4978566;28;20070;-68
2021/11/22 13:56:25;;;;;;;13.68;2.08;;;;;;;;;;4977852;28;21608;-69
2021/11/22 13:58:53;;;;;;;12.75;2.80;;;;;;;;;;4983301;28;20136;-68
2021/11/22 14:01:19;;;;;;;10.13;2.03;;;;;;;;;;4982279;28;20138;-69
2021/11/22 14:03:48;;;;;;;9.15;1.92;;;;;;;;;;4981790;28;20046;-68
2021/11/22 14:06:17;;;;;;;13.07;2.38;;;;;;;;;;4974064;28;20046;-68
2021/11/22 14:08:44;;;;;;;18.20;2.42;;;;;;;;;;4983140;28;20109;-68
2021/11/22 14:11:18;;;;;;;11.27;2.30;;;;;;;;;;4980056;28;20101;-68
2021/11/22 14:13:45;;;;;;;13.20;2.28;;;;;;;;;;4983760;28;20050;-69
2021/11/22 14:16:16;;;;;;;16.15;2.65;;;;;;;;;;4982080;28;20581;-69
2021/11/22 14:18:42;;;;;;;12.48;2.42;;;;;;;;;;4982482;28;20081;-68
2021/11/22 14:21:09;;;;;;;8.88;2.00;;;;;;;;;;4981729;28;20078;-69
2021/11/22 14:23:37;;;;;;;11.05;2.38;;;;;;;;;;4981188;28;20136;-69
2021/11/22 14:26:04;;;;;;;14.00;1.88;;;;;;;;;;4984417;28;20074;-69
2021/11/22 14:28:41;;;;;;;10.73;2.42;;;;;;;;;;4985533;28;20145;-69
2021/11/22 14:31:08;;;;;;;12.27;1.70;;;;;;;;;;4981392;28;20155;-68
2021/11/22 14:33:37;;;;;;;19.27;2.47;;;;;;;;;;4982329;28;20066;-68
2021/11/22 14:36:05;;;;;;;11.35;2.35;;;;;;;;;;4982904;28;20042;-69
2021/11/22 14:38:41;;;;;;;17.88;2.03;;;;;;;;;;4982201;28;20570;-69
2021/11/22 14:41:08;;;;;;;15.85;2.75;;;;;;;;;;4982329;28;20082;-68
2021/11/22 14:43:36;;;;;;;15.80;2.10;;;;;;;;;;4981806;28;20070;-68
2021/11/22 14:46:13;;;;;;;15.23;2.85;;;;;;;;;;4980352;28;20074;-70
2021/11/22 14:48:40;;;;;;;;;;;;;;;;;;4981933;28;20055;-69
2021/11/22 14:51:17;;;;;;;15.70;2.17;;;;;;;;;;4980911;28;19926;-69
2021/11/22 14:54:04;;;;;;;13.25;1.80;;;;;;;;;;4981261;28;20101;-69